Date,TemperatureHighF,TemperatureAvgF,TemperatureLowF,DewpointHighF,DewpointAvgF,DewpointLowF,HumidityHigh,HumidityAvg,HumidityLow,PressureMaxIn,PressureMinIn,WindSpeedMaxMPH,WindSpeedAvgMPH,GustSpeedMaxMPH,PrecipitationSumIn
2013-1-1,34,28,15,26,16,2,82,60,42,29.88,29.65,13,3,0,0.00
2013-1-2,28,16,6,16,6,-2,81,65,51,30.06,29.85,7,2,0,0.00
2013-1-3,24,12,-2,11,-1,-8,77,57,25,30.09,29.92,6,2,0,0.00
2013-1-4,37,28,18,22,19,12,87,70,52,29.92,29.74,7,2,0,0.00
2013-1-5,41,31,19,24,20,15,85,65,40,30.22,29.78,7,2,0,0.01
2013-1-6,40,30,20,28,24,16,96,80,57,30.18,29.90,5,1,0,0.06
2013-1-7,38,30,18,29,20,11,88,69,40,30.36,29.92,5,2,0,0.00
2013-1-8,45,30,15,26,23,13,95,74,47,30.33,30.23,5,2,0,0.01
2013-1-9,43,34,22,34,27,21,96,76,51,30.37,29.94,10,2,0,0.01
2013-1-10,45,38,28,28,24,21,83,57,41,30.51,29.98,12,4,0,0.00
2013-1-11,38,31,24,32,26,22,99,83,58,30.51,30.19,3,0,0,0.01
2013-1-12,41,35,32,40,35,32,99,99,97,30.18,30.09,2,0,0,0.05
2013-1-13,46,41,36,46,40,36,99,99,99,30.12,29.95,4,1,0,0.02
2013-1-14,57,45,37,50,39,26,99,81,50,30.23,29.85,10,2,0,0.00
2013-1-15,42,34,28,29,25,23,91,71,49,30.29,30.19,3,1,0,0.00
2013-1-16,31,29,28,31,26,-100,99,92,84,30.21,29.91,2,-17,0,0.00
2013-1-17,40,32,26,35,25,10,99,78,48,30.12,29.92,7,2,0,0.33
2013-1-18,26,19,13,10,2,-5,71,48,30,30.27,30.05,8,2,0,0.00
2013-1-19,44,33,18,26,19,6,75,56,43,30.16,29.70,9,2,0,0.03
2013-1-20,49,37,26,29,23,9,77,57,34,29.84,29.40,12,4,0,0.00
2013-1-21,28,22,16,20,10,2,94,60,40,29.99,29.71,11,1,0,0.00
2013-1-22,22,17,9,19,6,-4,96,65,36,30.02,29.69,8,2,0,0.00
2013-1-23,15,8,2,-1,-9,-14,71,46,29,30.06,29.98,8,3,0,0.00
2013-1-24,18,8,-3,-7,-10,-13,71,45,28,30.13,29.98,9,2,0,0.00
2013-1-25,23,14,5,10,-7,-12,78,40,24,30.20,29.94,8,2,0,0.00
2013-1-26,24,15,7,11,1,-7,90,58,29,30.13,29.89,8,2,0,0.00
2013-1-27,28,18,6,5,0,-4,76,49,26,30.33,30.13,7,2,0,0.00
2013-1-28,28,22,13,23,14,4,97,74,42,30.32,29.85,3,0,0,0.00
2013-1-29,33,28,20,30,26,19,99,94,84,30.01,29.85,2,0,0,0.00
2013-1-30,54,41,31,54,41,31,99,99,99,29.96,29.26,5,1,0,0.34
2013-1-31,57,43,27,57,36,16,99,76,42,29.48,28.79,14,5,0,0.99
2013-2-1,32,25,20,22,9,3,87,51,36,29.98,29.48,8,3,0,0.00
2013-2-2,30,22,13,16,6,2,74,49,35,30.13,29.94,6,2,0,0.00
2013-2-3,28,23,16,22,18,15,95,82,64,29.95,29.63,4,1,0,0.00
2013-2-4,29,22,16,19,9,3,94,58,37,29.85,29.62,11,4,0,0.00
2013-2-5,32,23,15,21,11,5,91,59,41,29.93,29.83,4,1,0,0.00
2013-2-6,36,27,20,24,16,3,96,66,37,30.22,29.84,9,2,0,0.00
2013-2-7,32,22,12,6,2,-3,74,45,28,30.44,30.23,5,2,0,0.00
2013-2-8,23,20,16,19,14,0,96,80,35,30.39,29.59,8,3,0,0.00
2013-2-9,25,18,12,18,13,2,98,80,60,30.10,29.54,7,3,0,0.00
2013-2-10,45,24,9,15,5,-2,75,49,17,30.30,30.10,4,2,0,0.21
2013-2-11,34,26,16,34,23,9,99,89,68,30.23,29.51,2,0,0,0.00
2013-2-12,44,37,32,35,28,24,99,73,52,29.79,29.50,9,4,0,0.19
2013-2-13,46,33,26,26,23,21,86,69,41,29.79,29.64,6,2,0,0.00
2013-2-14,46,34,25,26,21,19,83,63,37,29.91,29.62,4,1,0,0.00
2013-2-15,51,36,23,31,27,22,96,73,42,29.92,29.82,8,2,0,0.00
2013-2-16,40,34,26,32,26,15,99,75,54,29.90,29.68,5,1,0,0.01
2013-2-17,26,20,14,16,6,-1,89,55,42,29.67,29.36,12,5,0,0.00
2013-2-18,31,21,11,3,-1,-5,56,40,22,30.10,29.65,10,4,0,0.00
2013-2-19,44,32,20,36,21,3,99,67,38,30.12,29.52,4,1,0,0.12
2013-2-20,37,30,24,36,18,10,99,64,40,29.72,29.49,11,4,0,0.01
2013-2-21,33,26,21,16,12,8,72,57,40,30.15,29.70,12,4,0,0.00
2013-2-22,42,30,19,24,19,16,90,66,40,30.34,30.17,5,1,0,0.00
2013-2-23,35,32,27,32,28,22,99,85,75,30.29,29.87,5,1,0,0.00
2013-2-24,34,32,31,34,32,31,99,99,99,29.87,29.67,3,1,0,1.40
2013-2-25,41,33,26,36,32,25,99,97,82,30.18,29.86,2,0,0,0.33
2013-2-26,43,35,28,34,30,26,99,83,64,30.29,30.13,4,1,0,0.35
2013-2-27,39,34,32,38,34,29,99,98,87,30.12,29.54,5,3,0,1.79
2013-2-28,45,35,31,40,34,31,99,96,79,29.58,29.47,4,0,0,0.13
2013-3-1,42,35,30,33,29,27,99,80,62,29.63,29.48,7,1,0,0.00
2013-3-2,42,35,29,30,27,25,87,73,61,29.62,29.56,6,2,0,0.00
2013-3-3,40,34,30,30,27,24,86,76,65,29.60,29.51,5,2,0,0.00
2013-3-4,39,32,27,27,23,19,81,69,52,29.70,29.54,9,4,0,0.00
2013-3-5,46,35,28,33,26,22,96,70,47,30.02,29.70,5,1,0,0.00
2013-3-6,36,33,31,34,33,30,99,98,87,30.08,30.01,6,3,0,0.08
2013-3-7,34,31,29,32,30,26,99,95,86,30.06,29.97,6,3,0,0.00
2013-3-8,39,32,29,34,30,23,99,89,62,30.13,29.92,4,1,0,0.17
2013-3-9,57,38,25,28,22,14,99,58,18,30.32,30.12,6,1,0,0.42
2013-3-10,48,34,22,31,28,22,99,78,49,30.38,30.24,4,1,0,0.00
2013-3-11,52,40,28,39,33,28,99,79,49,30.27,30.09,5,1,0,0.00
2013-3-12,50,44,37,50,44,37,99,99,94,30.09,29.65,5,1,0,0.47
2013-3-13,50,40,32,42,28,19,99,66,32,29.74,29.66,8,3,0,0.00
2013-3-14,35,29,20,24,14,6,68,53,42,29.78,29.66,13,4,0,0.00
2013-3-15,40,28,15,30,14,5,93,57,25,29.81,29.57,9,3,0,0.00
2013-3-16,39,32,25,25,14,9,73,50,30,29.82,29.62,6,2,0,0.00
2013-3-17,37,28,19,16,10,3,83,50,28,30.27,29.82,8,2,0,0.00
2013-3-18,39,26,14,27,6,-1,97,47,19,30.41,30.17,4,1,0,0.00
2013-3-19,34,30,25,33,30,25,99,99,97,30.16,29.60,3,1,0,0.00
2013-3-20,40,28,21,25,22,20,99,81,48,29.75,29.65,7,2,0,0.00
2013-3-21,42,28,17,24,18,12,98,70,34,29.76,29.53,5,1,0,0.22
2013-3-22,43,32,25,22,18,14,70,56,34,29.68,29.56,12,3,0,0.09
2013-3-23,44,34,24,22,19,16,84,56,33,29.74,29.58,11,4,0,0.00
2013-3-24,47,37,31,26,22,19,81,56,38,29.76,29.67,7,2,0,0.00
2013-3-25,44,39,35,29,28,26,73,64,52,29.65,29.47,8,3,0,0.00
2013-3-26,50,39,33,29,24,19,78,57,30,29.73,29.50,5,2,0,0.00
2013-3-27,56,42,31,31,24,20,73,50,28,29.84,29.70,7,2,0,0.00
2013-3-28,52,42,35,34,31,28,98,69,41,29.98,29.84,5,1,0,0.00
2013-3-29,58,45,35,34,31,28,86,60,34,30.01,29.93,7,2,0,0.00
2013-3-30,58,44,32,32,24,16,83,51,19,30.06,29.96,7,2,0,0.00
2013-3-31,60,43,27,41,27,21,99,60,24,30.07,29.69,5,1,0,0.00
2013-4-1,62,44,32,43,34,11,99,71,36,29.74,29.45,11,3,0,0.31
2013-4-2,41,32,27,17,12,8,57,44,29,29.88,29.74,13,4,0,0.00
2013-4-3,46,35,27,15,13,8,55,41,22,30.11,29.87,14,4,0,0.00
2013-4-4,57,41,27,23,16,10,64,39,19,30.26,29.97,7,3,0,0.00
2013-4-5,62,46,37,28,24,17,70,45,17,29.99,29.60,7,3,0,0.00
2013-4-6,48,36,28,25,10,3,64,37,18,30.28,29.85,9,3,0,0.00
2013-4-7,58,41,24,39,24,10,84,52,25,30.28,29.92,8,2,0,0.00
2013-4-8,69,52,40,42,37,32,99,62,26,30.05,29.91,5,2,0,0.01
2013-4-9,69,55,44,50,43,38,99,68,41,30.03,29.83,10,2,0,0.00
2013-4-10,62,52,45,52,48,43,99,86,61,29.99,29.81,3,1,0,0.32
2013-4-11,52,46,38,48,36,24,99,73,39,30.10,29.80,5,1,0,0.08
2013-4-12,39,35,33,35,34,31,99,96,78,30.14,29.77,6,2,0,0.47
2013-4-13,56,42,33,39,35,33,99,78,45,29.90,29.74,5,2,0,0.13
2013-4-14,51,43,33,39,32,26,96,67,42,30.19,29.87,8,2,0,0.00
2013-4-15,61,45,29,37,32,28,97,66,37,30.35,30.19,5,1,0,0.00
2013-4-16,70,51,33,52,42,31,94,74,41,30.36,30.00,8,2,0,0.00
2013-4-17,68,56,43,53,36,28,88,51,23,30.30,30.02,6,2,0,0.00
2013-4-18,68,51,36,44,33,29,81,52,30,30.41,30.09,6,2,0,0.00
2013-4-19,75,63,52,63,57,45,99,81,58,30.11,29.57,8,3,0,0.00
2013-4-20,66,51,40,64,38,20,99,66,36,30.20,29.56,8,3,0,0.44
2013-4-21,56,41,30,26,20,16,75,45,21,30.65,30.21,7,2,0,0.00
2013-4-22,55,41,29,32,27,20,92,61,28,30.73,30.57,6,3,0,0.00
2013-4-23,39,37,35,39,36,31,99,94,80,30.57,30.10,5,2,0,0.00
2013-4-24,78,55,39,51,43,34,99,72,22,30.08,29.72,5,2,0,0.00
2013-4-25,65,56,40,34,28,22,62,37,21,30.25,30.04,9,2,0,0.00
2013-4-26,65,49,35,35,32,28,80,54,29,30.40,30.25,5,2,0,0.00
2013-4-27,69,52,34,38,34,31,90,56,28,30.39,30.22,4,1,0,0.00
2013-4-28,74,55,37,40,36,28,96,53,25,30.30,30.15,6,2,0,0.00
2013-4-29,72,57,43,46,36,24,78,47,29,30.23,30.13,4,1,0,0.00
2013-4-30,75,58,45,35,29,22,63,35,18,30.33,30.21,5,1,0,0.00
2013-5-1,75,56,36,36,32,28,76,44,21,30.44,30.32,5,2,0,0.00
2013-5-2,82,58,44,44,40,33,84,54,21,30.46,30.28,6,2,0,0.00
2013-5-3,65,51,40,44,40,36,94,68,43,30.51,30.35,6,2,0,0.00
2013-5-4,67,52,38,45,37,18,99,65,19,30.35,30.25,6,2,0,0.00
2013-5-5,68,50,33,40,36,32,99,66,34,30.31,30.20,4,1,0,0.00
2013-5-6,77,54,33,49,40,33,99,66,21,30.26,30.09,6,1,0,0.00
2013-5-7,83,63,44,56,49,40,99,66,28,30.15,30.03,5,1,0,0.00
2013-5-8,72,62,51,64,58,51,99,89,65,30.18,30.00,4,1,0,0.00
2013-5-9,71,60,56,62,59,56,99,96,68,30.00,29.84,2,0,0,0.21
2013-5-10,83,64,49,62,55,49,99,76,36,29.92,29.84,4,0,0,0.01
2013-5-11,67,62,58,64,60,56,99,93,84,29.85,29.64,3,0,0,0.08
2013-5-12,72,59,45,59,48,28,99,73,37,29.77,29.53,9,1,0,0.00
2013-5-13,61,48,38,34,30,26,85,52,28,30.01,29.77,5,1,0,0.00
2013-5-14,62,49,39,34,31,27,76,52,28,30.03,29.94,5,1,0,0.00
2013-5-15,67,50,36,52,40,30,99,74,32,30.02,29.62,4,1,0,0.01
2013-5-16,81,65,48,52,42,30,96,50,21,29.77,29.58,7,2,0,0.02
2013-5-17,73,58,46,43,40,35,84,55,27,30.18,29.77,4,1,0,0.00
2013-5-18,76,58,41,48,41,34,93,58,25,30.29,30.18,3,0,0,0.00
2013-5-19,71,56,44,57,50,44,99,84,49,30.33,30.18,4,0,0,0.00
2013-5-20,85,67,55,65,60,54,99,82,50,30.16,29.88,4,0,0,0.05
2013-5-21,87,64,50,71,60,49,99,88,57,30.01,29.79,4,0,0,0.00
2013-5-22,72,57,50,64,56,49,99,95,77,30.05,29.83,3,0,0,1.41
2013-5-23,77,62,53,71,61,53,99,98,79,29.89,29.73,4,0,0,1.67
2013-5-24,70,61,47,67,59,46,99,92,70,29.79,29.59,3,0,0,1.67
2013-5-25,51,46,39,50,45,39,99,98,92,29.78,29.69,6,1,0,0.40
2013-5-26,60,48,38,42,39,38,99,75,45,30.08,29.68,7,2,0,0.00
2013-5-27,76,56,38,45,39,33,99,60,24,30.15,30.05,7,1,0,0.00
2013-5-28,78,58,41,51,44,40,97,66,30,30.22,30.12,4,0,0,0.00
2013-5-29,70,61,54,65,60,51,99,95,81,30.14,29.94,3,0,0,0.70
2013-5-30,90,73,60,69,65,60,99,80,47,30.04,29.95,3,1,0,0.01
2013-5-31,96,78,64,72,66,63,99,70,38,30.04,29.85,6,1,0,0.00
2013-6-1,97,80,69,69,65,60,83,63,35,29.92,29.79,4,1,0,0.00
2013-6-2,92,78,68,72,67,62,99,72,38,29.81,29.63,5,1,0,0.00
2013-6-3,82,68,56,69,62,46,99,82,54,29.79,29.69,3,0,0,0.08
2013-6-4,72,59,49,49,44,40,82,59,38,30.06,29.78,5,1,0,0.00
2013-6-5,80,62,48,55,48,41,95,65,28,30.16,30.04,4,0,0,0.00
2013-6-6,74,62,51,54,50,47,95,68,42,30.15,30.05,3,0,0,0.00
2013-6-7,55,53,50,55,53,50,99,99,96,30.07,29.81,3,0,0,1.21
2013-6-8,81,62,50,64,57,50,99,86,54,29.96,29.61,5,1,0,0.47
2013-6-9,84,67,55,60,56,54,99,72,38,30.12,29.96,4,1,0,0.00
2013-6-10,70,62,55,61,58,54,99,87,68,30.17,29.97,2,0,0,0.58
2013-6-11,62,57,54,59,56,54,99,98,90,29.95,29.52,3,0,0,0.71
2013-6-12,69,61,55,58,55,53,99,83,58,29.78,29.51,4,1,0,0.09
2013-6-13,64,56,50,60,54,49,99,95,77,29.77,29.65,2,0,0,0.28
2013-6-14,78,59,50,61,55,50,99,87,44,29.75,29.61,2,0,0,0.23
2013-6-15,83,66,53,56,49,41,89,60,25,29.90,29.75,3,1,0,0.00
2013-6-16,78,66,56,62,55,49,82,67,48,29.89,29.64,4,1,0,0.00
2013-6-17,86,68,59,68,61,57,99,81,42,29.85,29.72,4,1,0,0.09
2013-6-18,70,60,56,64,60,56,99,97,80,29.90,29.82,3,0,0,0.33
2013-6-19,80,62,52,57,53,46,99,75,33,30.10,29.86,3,0,0,0.00
2013-6-20,86,64,47,56,50,46,99,68,29,30.23,30.11,4,0,0,0.00
2013-6-21,92,70,59,62,57,51,88,66,31,30.20,30.14,3,1,0,0.00
2013-6-22,88,73,62,66,62,58,90,69,41,30.16,30.04,4,1,0,0.00
2013-6-23,94,78,67,73,66,58,82,68,49,30.10,29.92,4,1,0,0.00
2013-6-24,93,78,68,74,70,67,99,79,46,29.97,29.82,3,1,0,0.28
2013-6-25,93,76,66,73,69,65,99,82,47,29.88,29.67,4,1,0,0.00
2013-6-26,82,73,68,72,70,68,99,90,70,29.80,29.66,3,0,0,0.00
2013-6-27,69,67,63,68,66,63,99,98,93,29.81,29.69,0,0,0,0.00
2013-6-28,79,65,58,75,65,57,99,98,86,29.70,29.41,4,0,0,1.10
2013-6-29,87,74,67,73,69,67,99,86,54,29.65,29.43,4,0,0,0.00
2013-6-30,86,75,66,73,70,66,99,84,60,29.87,29.66,3,0,0,0.04
2013-7-1,78,72,70,74,72,69,99,97,86,30.03,29.87,2,0,0,1.91
2013-7-2,86,73,62,76,70,62,99,93,70,30.16,30.01,4,0,0,0.00
2013-7-3,90,74,62,75,69,61,99,85,56,30.16,30.07,6,1,0,0.00
2013-7-4,95,81,72,74,73,72,99,78,52,30.15,30.04,3,1,0,0.00
2013-7-5,97,82,74,76,74,72,95,77,50,30.12,29.97,4,1,0,0.00
2013-7-6,92,79,72,74,71,63,98,78,50,30.04,29.93,4,1,0,0.00
2013-7-7,91,77,67,78,70,63,94,80,57,29.98,29.85,3,0,0,0.00
2013-7-8,88,77,69,76,72,67,98,86,55,30.01,29.86,3,1,0,0.00
2013-7-9,73,69,65,70,67,64,99,94,85,30.06,29.99,0,0,0,0.00
2013-7-10,83,72,66,78,71,66,99,96,82,30.01,29.72,2,0,0,0.00
2013-7-11,88,75,68,76,72,66,99,92,62,29.89,29.71,2,0,0,0.08
2013-7-12,79,70,64,66,61,58,91,74,49,30.16,29.89,4,1,0,0.00
2013-7-13,78,70,64,72,65,59,99,86,77,30.27,30.16,2,0,0,0.00
2013-7-14,91,77,68,76,72,68,99,86,53,30.25,30.16,2,0,0,0.00
2013-7-15,92,78,69,76,72,69,99,83,51,30.17,30.06,3,0,0,0.00
2013-7-16,94,79,69,75,70,66,94,74,46,30.12,30.06,3,0,0,0.00
2013-7-17,96,80,67,74,71,67,99,76,47,30.14,29.94,4,0,0,0.00
2013-7-18,96,81,72,80,74,70,98,79,48,29.96,29.88,3,0,0,0.00
2013-7-19,97,83,72,77,74,71,99,77,49,29.90,29.65,3,1,0,0.00
2013-7-20,90,80,71,76,70,62,92,74,54,29.76,29.61,4,0,0,0.00
2013-7-21,85,73,63,70,66,61,97,80,57,29.94,29.76,3,0,0,0.00
2013-7-22,84,70,63,71,67,62,99,89,66,29.97,29.83,2,0,0,0.00
2013-7-23,84,70,67,77,69,66,99,98,79,29.83,29.47,3,0,0,0.88
2013-7-24,83,73,62,72,67,53,99,82,53,29.92,29.51,4,0,0,0.00
2013-7-25,64,60,56,60,54,48,99,82,70,30.08,29.92,3,0,0,0.00
2013-7-26,76,65,60,69,63,59,99,94,73,30.03,29.89,3,0,0,0.20
2013-7-27,85,69,57,68,62,57,99,81,49,30.01,29.92,4,1,0,0.00
2013-7-28,84,70,59,72,66,59,99,87,63,29.97,29.89,4,0,0,0.00
2013-7-29,86,73,67,72,68,61,99,85,49,30.00,29.89,3,0,0,0.00
2013-7-30,86,70,59,62,58,56,91,69,39,30.05,29.98,3,0,0,0.00
2013-7-31,87,69,58,67,61,57,99,78,42,30.10,29.97,3,0,0,0.00
2013-8-1,78,66,58,68,63,57,99,90,64,29.99,29.81,2,0,0,0.00
2013-8-2,84,70,64,68,63,58,99,82,41,29.81,29.73,3,0,0,0.67
2013-8-3,81,68,62,64,61,56,94,77,52,29.80,29.71,4,1,0,0.00
2013-8-4,84,66,55,61,56,54,95,72,40,29.84,29.72,3,1,0,0.00
2013-8-5,78,62,54,54,49,42,92,66,28,30.00,29.83,3,1,0,0.00
2013-8-6,80,62,48,60,53,47,98,74,43,30.10,30.00,3,0,0,0.00
2013-8-7,85,66,53,62,56,53,99,74,39,30.14,30.04,3,0,0,0.00
2013-8-8,84,72,63,72,67,59,99,87,66,30.06,29.94,4,0,0,0.00
2013-8-9,75,72,70,75,71,69,99,97,92,29.96,29.69,3,0,0,1.35
2013-8-10,84,71,63,70,62,53,99,76,43,29.97,29.73,4,1,0,0.00
2013-8-11,83,65,54,61,55,52,95,73,40,30.03,29.94,3,1,0,0.00
2013-8-12,86,68,58,64,59,55,96,76,42,29.98,29.85,3,1,0,0.00
2013-8-13,74,67,63,70,65,62,99,93,81,29.87,29.61,2,0,0,0.00
2013-8-14,74,64,55,64,55,50,99,74,49,29.92,29.60,7,1,0,0.00
2013-8-15,78,63,53,57,53,50,94,73,41,30.07,29.92,4,0,0,0.06
2013-8-16,83,64,53,60,55,51,94,74,38,30.15,30.06,2,0,0,0.04
2013-8-17,83,65,52,66,58,52,99,82,46,30.24,30.14,2,0,0,0.00
2013-8-18,80,67,56,67,62,56,99,86,57,30.23,30.02,3,0,0,0.00
2013-8-19,81,70,61,66,62,59,95,77,54,30.03,29.89,3,1,0,0.00
2013-8-20,89,72,62,68,63,60,94,75,44,30.04,29.92,3,0,0,0.00
2013-8-21,89,72,60,69,64,60,99,79,44,30.10,29.96,4,1,0,0.00
2013-8-22,89,75,64,71,67,62,96,78,52,29.98,29.75,3,1,0,0.00
2013-8-23,82,70,61,69,59,51,94,70,43,30.08,29.76,4,0,0,0.00
2013-8-24,82,63,53,58,52,48,89,68,34,30.30,30.09,3,0,0,0.00
2013-8-25,85,66,52,60,54,50,99,71,32,30.34,30.12,4,0,0,0.00
2013-8-26,81,70,61,69,63,56,98,80,63,30.13,29.80,3,1,0,0.00
2013-8-27,88,74,67,71,68,66,99,85,50,29.84,29.75,3,0,0,0.00
2013-8-28,87,72,63,73,66,62,99,85,55,29.91,29.78,3,0,0,0.00
2013-8-29,68,64,60,65,63,60,99,98,92,30.02,29.88,3,0,0,0.00
2013-8-30,88,70,58,70,64,57,99,85,51,29.96,29.74,4,0,0,0.00
2013-8-31,80,73,68,76,71,67,99,94,80,29.76,29.70,3,0,0,0.12
2013-9-1,84,75,69,75,72,67,99,90,73,29.81,29.72,3,0,0,0.00
2013-9-2,80,74,71,75,72,71,99,95,77,29.79,29.63,2,0,0,0.00
2013-9-3,79,70,63,72,66,57,99,87,68,29.74,29.63,3,0,0,0.00
2013-9-4,82,67,58,60,57,56,98,74,41,29.86,29.73,5,1,0,0.00
2013-9-5,77,62,52,62,52,44,96,74,36,30.11,29.79,2,0,0,0.00
2013-9-6,74,56,46,49,43,39,95,65,31,30.21,30.04,4,0,0,0.00
2013-9-7,82,63,48,59,52,46,94,72,39,30.04,29.80,3,0,0,0.01
2013-9-8,73,62,49,61,51,41,97,69,37,30.05,29.70,4,1,0,0.10
2013-9-9,72,56,41,51,44,40,95,70,37,30.20,30.05,4,0,0,0.03
2013-9-10,76,65,53,72,63,50,99,93,82,30.10,29.96,4,1,0,0.13
2013-9-11,96,78,67,77,72,67,99,82,51,30.01,29.89,6,1,0,0.01
2013-9-12,84,73,66,77,70,66,99,92,71,29.89,29.59,6,1,0,1.21
2013-9-13,79,66,57,69,63,54,99,90,66,29.71,29.51,4,0,0,0.06
2013-9-14,67,58,50,55,53,50,98,83,63,30.00,29.71,3,1,0,0.00
2013-9-15,74,58,46,57,49,44,99,77,39,30.13,30.00,5,1,0,0.00
2013-9-16,68,57,45,56,51,37,96,81,63,30.22,29.96,3,0,0,0.01
2013-9-17,66,49,38,48,40,36,97,76,43,30.40,30.22,3,1,0,0.00
2013-9-18,78,55,41,52,46,39,99,76,28,30.29,30.08,3,0,0,0.00
2013-9-19,82,62,47,61,53,46,99,74,36,30.09,29.97,3,0,0,0.00
2013-9-20,82,62,49,59,55,49,99,80,43,30.05,29.93,2,0,0,0.00
2013-9-21,75,63,49,64,58,49,99,85,60,29.97,29.64,6,2,0,0.00
2013-9-22,68,62,51,67,56,45,99,83,54,29.78,29.52,4,1,0,0.87
2013-9-23,66,50,41,48,43,39,97,77,46,29.97,29.79,5,1,0,0.00
2013-9-24,71,52,39,48,43,38,99,76,37,29.95,29.77,4,1,0,0.00
2013-9-25,72,56,45,54,49,44,99,80,51,29.94,29.82,3,1,0,0.00
2013-9-26,69,57,51,54,50,47,96,80,51,30.09,29.94,4,0,0,0.00
2013-9-27,67,57,50,56,52,49,99,86,64,30.22,30.09,3,0,0,0.00
2013-9-28,75,57,47,58,52,47,99,85,53,30.31,30.21,3,0,0,0.00
2013-9-29,71,53,43,55,48,43,99,85,47,30.22,30.07,3,0,0,0.00
2013-9-30,73,53,38,56,48,38,99,86,46,30.09,29.91,3,0,0,0.00
2013-10-1,79,60,45,59,53,45,99,82,43,29.93,29.81,3,0,0,0.00
2013-10-2,80,65,53,61,58,52,99,79,52,29.91,29.78,4,1,0,0.00
2013-10-3,79,62,50,60,53,46,99,77,33,30.06,29.90,3,1,0,0.00
2013-10-4,61,56,50,59,54,48,99,94,82,30.07,30.00,2,0,0,0.48
2013-10-5,68,60,56,61,58,56,99,93,74,30.08,30.01,2,0,0,0.00
2013-10-6,59,54,51,58,54,51,99,99,99,30.20,30.07,2,0,0,0.57
2013-10-7,74,60,53,71,60,53,99,97,82,30.09,29.72,7,1,0,0.55
2013-10-8,66,53,42,55,47,42,99,83,46,30.34,29.84,4,1,0,0.00
2013-10-9,63,49,39,50,44,39,99,85,55,30.45,30.34,3,1,0,0.00
2013-10-10,61,49,39,53,46,38,99,92,67,30.34,30.16,2,0,0,0.00
2013-10-11,72,55,44,52,47,35,99,79,28,30.16,30.07,3,0,0,0.00
2013-10-12,55,52,48,55,52,47,99,99,96,30.38,30.13,3,1,0,0.00
2013-10-13,59,50,42,51,48,41,99,93,71,30.43,30.35,3,0,0,0.00
2013-10-14,67,50,35,50,44,35,99,83,46,30.38,30.20,3,0,0,0.00
2013-10-15,67,56,50,56,53,48,99,89,66,30.25,30.14,3,0,0,0.00
2013-10-16,60,53,47,53,51,47,99,92,67,30.15,29.87,3,0,0,0.00
2013-10-17,74,58,46,60,52,46,99,85,46,29.87,29.66,4,1,0,0.00
2013-10-18,65,57,45,60,50,40,99,80,50,29.86,29.55,7,2,0,0.05
2013-10-19,68,52,38,48,42,38,99,73,39,29.93,29.68,4,1,0,0.00
2013-10-20,60,51,41,50,40,32,99,68,40,29.97,29.63,6,2,0,0.00
2013-10-21,67,51,40,43,40,36,89,69,39,30.06,29.93,6,1,0,0.00
2013-10-22,63,51,41,51,44,36,99,80,59,29.92,29.65,4,1,0,0.00
2013-10-23,52,44,33,38,35,32,95,71,49,29.75,29.52,3,1,0,0.00
2013-10-24,52,44,37,36,30,25,84,59,38,29.83,29.59,8,2,0,0.00
2013-10-25,49,40,31,35,30,25,93,68,43,30.09,29.83,6,2,0,0.00
2013-10-26,53,42,29,35,30,26,97,65,37,30.09,29.80,10,2,0,0.00
2013-10-27,53,46,37,36,33,29,80,60,42,30.01,29.73,7,2,0,0.00
2013-10-28,56,43,32,35,32,25,87,66,42,30.30,30.01,7,2,0,0.00
2013-10-29,49,34,26,24,22,18,90,62,30,30.40,30.29,4,1,0,0.00
2013-10-30,54,40,29,39,32,20,99,74,56,30.30,30.14,4,1,0,0.00
2013-10-31,58,45,32,58,44,31,99,98,91,30.19,29.72,3,0,0,0.27
2013-11-1,65,61,52,64,58,50,99,90,74,29.71,29.38,11,3,0,0.20
2013-11-2,66,52,41,50,44,40,99,78,42,29.68,29.52,5,1,0,0.01
2013-11-3,47,39,29,44,26,16,93,62,33,30.37,29.67,5,2,0,0.00
2013-11-4,42,31,24,20,17,14,82,58,33,30.65,30.38,5,1,0,0.00
2013-11-5,51,36,24,33,27,19,91,74,46,30.67,30.44,5,1,0,0.00
2013-11-6,61,48,36,47,41,33,96,76,53,30.45,29.97,6,2,0,0.00
2013-11-7,62,52,36,58,47,28,96,85,67,29.97,29.63,6,2,0,0.05
2013-11-8,46,38,30,32,26,21,75,62,51,30.04,29.76,10,3,0,0.00
2013-11-9,45,36,27,30,24,21,82,64,40,30.17,29.97,7,2,0,0.00
2013-11-10,54,43,35,42,35,30,99,74,54,29.96,29.68,10,2,0,0.03
2013-11-11,50,43,36,31,28,23,67,57,34,30.06,29.81,9,2,0,0.00
2013-11-12,45,33,25,38,23,15,92,66,52,30.12,29.81,10,2,0,0.02
2013-11-13,35,27,21,18,14,10,79,61,38,30.24,30.08,6,2,0,0.00
2013-11-14,50,38,27,26,21,18,69,52,34,30.06,29.97,9,2,0,0.00
2013-11-15,61,45,34,27,20,11,55,38,14,30.14,30.03,5,2,0,0.00
2013-11-16,59,44,34,34,30,24,88,60,30,30.27,30.12,4,1,0,0.00
2013-11-17,46,40,32,44,38,30,99,92,79,30.26,29.79,2,0,0,0.01
2013-11-18,63,52,45,58,44,31,99,75,47,29.77,29.46,8,2,0,0.28
2013-11-19,46,37,29,30,22,16,63,54,42,30.24,29.61,11,4,0,0.00
2013-11-20,41,30,22,16,15,12,72,54,32,30.58,30.23,7,2,0,0.00
2013-11-21,46,33,20,32,21,12,82,64,28,30.61,30.30,5,1,0,0.00
2013-11-22,42,41,38,42,40,32,99,95,76,30.29,29.74,3,0,0,0.15
2013-11-23,45,37,27,43,26,12,99,66,44,29.87,29.71,11,3,0,0.01
2013-11-24,27,22,17,16,3,-4,70,45,29,30.13,29.73,14,5,0,0.00
2013-11-25,31,23,13,14,3,-7,57,42,22,30.30,30.14,7,3,0,0.00
2013-11-26,36,32,27,32,23,14,99,72,50,30.26,30.00,4,1,0,0.02
2013-11-27,54,42,32,54,41,32,99,98,89,29.98,29.18,6,1,0,2.40
2013-11-28,35,28,20,32,16,5,88,61,36,30.37,29.40,14,4,0,0.00
2013-11-29,32,24,15,16,10,3,86,59,36,30.68,30.36,6,2,0,0.00
2013-11-30,30,21,10,20,12,6,87,69,43,30.75,30.36,4,1,0,0.00
2013-12-1,34,32,27,34,30,21,99,95,79,30.36,29.96,2,0,0,0.09
2013-12-2,38,35,34,38,35,34,99,99,99,29.96,29.85,2,0,0,0.01
2013-12-3,48,36,29,42,33,28,99,92,62,29.90,29.78,3,1,0,0.00
2013-12-4,42,32,27,31,28,26,99,86,56,30.13,29.89,5,1,0,0.00
2013-12-5,39,35,28,39,34,27,99,98,91,30.16,29.85,3,0,0,0.03
2013-12-6,53,45,32,53,43,32,99,92,73,30.09,29.79,5,1,0,0.19
2013-12-7,35,30,22,32,29,22,99,94,75,30.39,30.03,5,1,0,0.09
2013-12-8,30,25,18,23,20,16,98,83,59,30.53,30.39,6,1,0,0.00
2013-12-9,33,29,23,33,28,19,99,96,77,30.45,29.81,3,1,0,0.01
2013-12-10,34,29,21,32,26,15,99,92,68,29.91,29.71,6,1,0,0.00
2013-12-11,30,23,16,20,17,15,95,80,59,30.12,29.91,7,2,0,0.00
2013-12-12,23,16,8,19,8,0,94,70,38,30.20,29.97,8,2,0,0.00
2013-12-13,27,18,9,20,12,5,90,77,64,30.32,29.91,5,2,0,0.00
2013-12-14,15,11,7,12,3,-5,95,71,42,30.54,30.11,5,2,0,0.00
2013-12-15,29,20,14,26,19,12,99,95,87,30.09,29.37,6,2,0,0.00
2013-12-16,25,19,8,20,10,4,99,69,44,30.12,29.65,8,3,0,0.00
2013-12-17,16,7,-4,14,4,-7,96,88,68,30.19,29.92,3,1,0,0.00
2013-12-18,32,24,16,22,20,15,99,85,63,30.00,29.83,2,0,0,0.00
2013-12-19,40,30,22,26,23,20,93,77,52,30.04,29.88,5,2,0,0.07
2013-12-20,54,36,28,34,30,26,95,80,45,30.06,29.84,3,1,0,0.31
2013-12-21,58,42,32,47,39,31,99,88,63,29.89,29.77,3,1,0,0.00
2013-12-22,44,36,32,44,35,32,99,99,99,29.96,29.74,3,1,0,0.04
2013-12-23,37,33,31,37,32,31,99,99,95,30.04,29.90,4,1,0,0.61
2013-12-24,35,29,23,34,19,12,99,67,48,30.13,29.98,5,2,0,0.00
2013-12-25,22,17,11,16,5,1,78,60,43,30.46,30.14,9,2,0,0.00
2013-12-26,28,22,14,26,18,9,99,86,72,30.42,30.01,4,1,0,0.00
2013-12-27,32,25,18,23,20,17,99,84,61,30.21,30.13,5,2,0,0.00
2013-12-28,44,32,21,29,25,19,99,80,52,30.15,29.91,7,2,0,0.09
2013-12-29,40,33,28,36,31,26,99,93,73,29.96,29.40,4,1,0,1.09
2013-12-30,39,30,15,34,23,8,99,76,51,30.10,29.49,9,2,0,0.10
2013-12-31,24,15,7,14,8,3,92,73,46,30.10,29.93,7,1,0,0.00
2014-1-1,25,17,9,14,8,5,88,70,48,30.30,30.10,6,1,0,0.00
2014-1-2,17,9,0,15,7,-3,93,89,84,30.28,29.79,6,3,0,0.00